sensor_id;sensor_type;location;lat;lon;timestamp;P1;durP1;ratioP1;P2;durP2;ratioP2
11228;SDS011;5671;47.936;8.716;2022-09-27T00:00:44;0.63;;;0.37;;
11228;SDS011;5671;47.936;8.716;2022-09-27T00:03:11;1.27;;;0.80;;
11228;SDS011;5671;47.936;8.716;2022-09-27T00:05:39;0.60;;;0.60;;
11228;SDS011;5671;47.936;8.716;2022-09-27T00:08:06;1.17;;;0.80;;
11228;SDS011;5671;47.936;8.716;2022-09-27T00:10:34;1.33;;;0.80;;
11228;SDS011;5671;47.936;8.716;2022-09-27T00:13:01;2.60;;;1.00;;
11228;SDS011;5671;47.936;8.716;2022-09-27T00:15:28;0.70;;;0.60;;
11228;SDS011;5671;47.936;8.716;2022-09-27T00:17:55;0.97;;;0.60;;
11228;SDS011;5671;47.936;8.716;2022-09-27T00:20:22;0.60;;;0.60;;
11228;SDS011;5671;47.936;8.716;2022-09-27T00:22:50;0.83;;;0.63;;
11228;SDS011;5671;47.936;8.716;2022-09-27T00:25:17;0.60;;;0.60;;
11228;SDS011;5671;47.936;8.716;2022-09-27T00:27:45;0.73;;;0.50;;
11228;SDS011;5671;47.936;8.716;2022-09-27T00:30:14;1.70;;;0.70;;
11228;SDS011;5671;47.936;8.716;2022-09-27T00:32:41;0.50;;;0.50;;
11228;SDS011;5671;47.936;8.716;2022-09-27T00:35:08;0.60;;;0.60;;
11228;SDS011;5671;47.936;8.716;2022-09-27T00:37:35;0.33;;;0.33;;
11228;SDS011;5671;47.936;8.716;2022-09-27T00:40:02;0.40;;;0.40;;
11228;SDS011;5671;47.936;8.716;2022-09-27T00:42:29;0.43;;;0.43;;
11228;SDS011;5671;47.936;8.716;2022-09-27T00:45:05;1.40;;;0.50;;
11228;SDS011;5671;47.936;8.716;2022-09-27T00:47:39;1.70;;;0.40;;
11228;SDS011;5671;47.936;8.716;2022-09-27T00:50:14;0.37;;;0.30;;
11228;SDS011;5671;47.936;8.716;2022-09-27T00:52:59;0.40;;;0.40;;
11228;SDS011;5671;47.936;8.716;2022-09-27T00:55:35;0.93;;;0.53;;
11228;SDS011;5671;47.936;8.716;2022-09-27T00:58:06;0.40;;;0.40;;
11228;SDS011;5671;47.936;8.716;2022-09-27T01:00:36;0.50;;;0.50;;
11228;SDS011;5671;47.936;8.716;2022-09-27T01:03:07;0.93;;;0.70;;
11228;SDS011;5671;47.936;8.716;2022-09-27T01:05:38;0.40;;;0.40;;
11228;SDS011;5671;47.936;8.716;2022-09-27T01:08:06;0.77;;;0.40;;
11228;SDS011;5671;47.936;8.716;2022-09-27T01:10:35;0.67;;;0.63;;
11228;SDS011;5671;47.936;8.716;2022-09-27T01:13:08;0.50;;;0.50;;
11228;SDS011;5671;47.936;8.716;2022-09-27T01:15:47;0.47;;;0.40;;
11228;SDS011;5671;47.936;8.716;2022-09-27T01:18:22;0.40;;;0.30;;
11228;SDS011;5671;47.936;8.716;2022-09-27T01:23:58;0.40;;;0.40;;
11228;SDS011;5671;47.936;8.716;2022-09-27T01:26:42;0.50;;;0.30;;
11228;SDS011;5671;47.936;8.716;2022-09-27T01:29:35;0.73;;;0.50;;
11228;SDS011;5671;47.936;8.716;2022-09-27T01:32:24;0.97;;;0.30;;
11228;SDS011;5671;47.936;8.716;2022-09-27T01:34:59;0.40;;;0.40;;
11228;SDS011;5671;47.936;8.716;2022-09-27T01:37:31;1.60;;;0.30;;
11228;SDS011;5671;47.936;8.716;2022-09-27T01:40:06;4.37;;;0.23;;
11228;SDS011;5671;47.936;8.716;2022-09-27T01:42:39;0.40;;;0.30;;
11228;SDS011;5671;47.936;8.716;2022-09-27T01:45:13;0.30;;;0.30;;
11228;SDS011;5671;47.936;8.716;2022-09-27T01:47:49;0.27;;;0.27;;
11228;SDS011;5671;47.936;8.716;2022-09-27T01:50:20;0.83;;;0.40;;
11228;SDS011;5671;47.936;8.716;2022-09-27T01:52:52;2.07;;;0.37;;
11228;SDS011;5671;47.936;8.716;2022-09-27T01:55:25;1.43;;;0.20;;
11228;SDS011;5671;47.936;8.716;2022-09-27T01:57:57;0.20;;;0.20;;
11228;SDS011;5671;47.936;8.716;2022-09-27T02:00:28;0.47;;;0.30;;
11228;SDS011;5671;47.936;8.716;2022-09-27T02:02:57;1.10;;;0.57;;
11228;SDS011;5671;47.936;8.716;2022-09-27T02:05:33;0.30;;;0.30;;
11228;SDS011;5671;47.936;8.716;2022-09-27T02:08:04;0.37;;;0.37;;
11228;SDS011;5671;47.936;8.716;2022-09-27T02:10:41;0.87;;;0.30;;
11228;SDS011;5671;47.936;8.716;2022-09-27T02:13:15;1.87;;;0.40;;
11228;SDS011;5671;47.936;8.716;2022-09-27T02:15:47;1.17;;;0.50;;
11228;SDS011;5671;47.936;8.716;2022-09-27T02:18:24;0.57;;;0.20;;
11228;SDS011;5671;47.936;8.716;2022-09-27T02:20:58;1.33;;;0.30;;
11228;SDS011;5671;47.936;8.716;2022-09-27T02:23:28;2.20;;;0.40;;
11228;SDS011;5671;47.936;8.716;2022-09-27T02:26:00;0.43;;;0.27;;
11228;SDS011;5671;47.936;8.716;2022-09-27T02:28:36;0.23;;;0.23;;
11228;SDS011;5671;47.936;8.716;2022-09-27T02:31:06;0.70;;;0.30;;
11228;SDS011;5671;47.936;8.716;2022-09-27T02:33:35;0.30;;;0.30;;
11228;SDS011;5671;47.936;8.716;2022-09-27T02:36:05;2.93;;;0.30;;
11228;SDS011;5671;47.936;8.716;2022-09-27T02:38:33;0.10;;;0.10;;
11228;SDS011;5671;47.936;8.716;2022-09-27T02:41:00;0.20;;;0.20;;
11228;SDS011;5671;47.936;8.716;2022-09-27T02:43:28;0.40;;;0.20;;
11228;SDS011;5671;47.936;8.716;2022-09-27T02:46:02;0.30;;;0.17;;
11228;SDS011;5671;47.936;8.716;2022-09-27T02:48:44;2.43;;;0.40;;
11228;SDS011;5671;47.936;8.716;2022-09-27T02:51:26;1.17;;;0.30;;
11228;SDS011;5671;47.936;8.716;2022-09-27T02:54:06;0.27;;;0.20;;
11228;SDS011;5671;47.936;8.716;2022-09-27T02:56:42;0.50;;;0.30;;
11228;SDS011;5671;47.936;8.716;2022-09-27T02:59:22;0.97;;;0.33;;
11228;SDS011;5671;47.936;8.716;2022-09-27T03:01:59;1.90;;;0.30;;
11228;SDS011;5671;47.936;8.716;2022-09-27T03:04:33;1.07;;;0.30;;
11228;SDS011;5671;47.936;8.716;2022-09-27T03:07:05;1.83;;;0.50;;
11228;SDS011;5671;47.936;8.716;2022-09-27T03:09:39;1.60;;;0.30;;
11228;SDS011;5671;47.936;8.716;2022-09-27T03:12:08;0.43;;;0.23;;
11228;SDS011;5671;47.936;8.716;2022-09-27T03:14:35;0.97;;;0.40;;
11228;SDS011;5671;47.936;8.716;2022-09-27T03:17:02;0.97;;;0.40;;
11228;SDS011;5671;47.936;8.716;2022-09-27T03:19:29;0.77;;;0.30;;
11228;SDS011;5671;47.936;8.716;2022-09-27T03:22:05;1.43;;;0.60;;
11228;SDS011;5671;47.936;8.716;2022-09-27T03:24:32;2.47;;;0.30;;
11228;SDS011;5671;47.936;8.716;2022-09-27T03:26:59;0.43;;;0.13;;
11228;SDS011;5671;47.936;8.716;2022-09-27T03:29:26;0.40;;;0.20;;
11228;SDS011;5671;47.936;8.716;2022-09-27T03:31:53;3.60;;;0.40;;
11228;SDS011;5671;47.936;8.716;2022-09-27T03:34:20;0.23;;;0.10;;
11228;SDS011;5671;47.936;8.716;2022-09-27T03:36:47;0.10;;;0.10;;
11228;SDS011;5671;47.936;8.716;2022-09-27T03:39:15;2.63;;;0.20;;
11228;SDS011;5671;47.936;8.716;2022-09-27T03:41:42;1.53;;;0.40;;
11228;SDS011;5671;47.936;8.716;2022-09-27T03:44:09;1.33;;;0.50;;
11228;SDS011;5671;47.936;8.716;2022-09-27T03:46:36;0.33;;;0.23;;
11228;SDS011;5671;47.936;8.716;2022-09-27T03:49:03;2.37;;;0.50;;
11228;SDS011;5671;47.936;8.716;2022-09-27T03:51:30;0.20;;;0.20;;
11228;SDS011;5671;47.936;8.716;2022-09-27T03:53:57;1.33;;;0.53;;
11228;SDS011;5671;47.936;8.716;2022-09-27T03:56:26;1.30;;;0.60;;
11228;SDS011;5671;47.936;8.716;2022-09-27T03:58:53;0.50;;;0.40;;
11228;SDS011;5671;47.936;8.716;2022-09-27T04:01:20;0.83;;;0.40;;
11228;SDS011;5671;47.936;8.716;2022-09-27T04:03:47;1.13;;;0.40;;
11228;SDS011;5671;47.936;8.716;2022-09-27T04:06:14;1.20;;;0.50;;
11228;SDS011;5671;47.936;8.716;2022-09-27T04:08:41;1.17;;;0.40;;
11228;SDS011;5671;47.936;8.716;2022-09-27T04:11:08;1.63;;;0.50;;
11228;SDS011;5671;47.936;8.716;2022-09-27T04:13:37;2.20;;;0.47;;
11228;SDS011;5671;47.936;8.716;2022-09-27T04:16:04;0.77;;;0.50;;
11228;SDS011;5671;47.936;8.716;2022-09-27T04:18:32;0.60;;;0.20;;
11228;SDS011;5671;47.936;8.716;2022-09-27T04:20:59;1.07;;;0.50;;
11228;SDS011;5671;47.936;8.716;2022-09-27T04:23:26;0.77;;;0.33;;
11228;SDS011;5671;47.936;8.716;2022-09-27T04:25:53;0.50;;;0.30;;
11228;SDS011;5671;47.936;8.716;2022-09-27T04:28:20;0.83;;;0.27;;
11228;SDS011;5671;47.936;8.716;2022-09-27T04:30:49;0.37;;;0.10;;
11228;SDS011;5671;47.936;8.716;2022-09-27T04:33:16;0.77;;;0.30;;
11228;SDS011;5671;47.936;8.716;2022-09-27T04:35:43;1.80;;;0.40;;
11228;SDS011;5671;47.936;8.716;2022-09-27T04:38:27;2.67;;;0.53;;
11228;SDS011;5671;47.936;8.716;2022-09-27T04:40:54;1.10;;;0.40;;
11228;SDS011;5671;47.936;8.716;2022-09-27T04:43:23;0.67;;;0.23;;
11228;SDS011;5671;47.936;8.716;2022-09-27T04:45:52;0.50;;;0.40;;
11228;SDS011;5671;47.936;8.716;2022-09-27T04:48:19;0.20;;;0.20;;
11228;SDS011;5671;47.936;8.716;2022-09-27T04:50:46;2.40;;;0.33;;
11228;SDS011;5671;47.936;8.716;2022-09-27T04:53:13;0.60;;;0.30;;
11228;SDS011;5671;47.936;8.716;2022-09-27T04:55:43;0.33;;;0.30;;
11228;SDS011;5671;47.936;8.716;2022-09-27T04:58:11;2.27;;;0.33;;
11228;SDS011;5671;47.936;8.716;2022-09-27T05:00:38;0.50;;;0.30;;
11228;SDS011;5671;47.936;8.716;2022-09-27T05:05:59;1.47;;;0.20;;
11228;SDS011;5671;47.936;8.716;2022-09-27T05:08:27;0.90;;;0.33;;
11228;SDS011;5671;47.936;8.716;2022-09-27T05:10:54;0.40;;;0.20;;
11228;SDS011;5671;47.936;8.716;2022-09-27T05:13:21;0.47;;;0.10;;
11228;SDS011;5671;47.936;8.716;2022-09-27T05:15:48;0.47;;;0.07;;
11228;SDS011;5671;47.936;8.716;2022-09-27T05:18:16;0.63;;;0.27;;
11228;SDS011;5671;47.936;8.716;2022-09-27T05:20:45;0.20;;;0.20;;
11228;SDS011;5671;47.936;8.716;2022-09-27T05:23:12;1.10;;;0.13;;
11228;SDS011;5671;47.936;8.716;2022-09-27T05:25:39;0.40;;;0.40;;
11228;SDS011;5671;47.936;8.716;2022-09-27T05:28:06;0.40;;;0.10;;
11228;SDS011;5671;47.936;8.716;2022-09-27T05:30:33;0.93;;;0.50;;
11228;SDS011;5671;47.936;8.716;2022-09-27T05:33:00;0.40;;;0.10;;
11228;SDS011;5671;47.936;8.716;2022-09-27T05:35:27;0.37;;;0.17;;
11228;SDS011;5671;47.936;8.716;2022-09-27T05:37:57;1.27;;;0.70;;
11228;SDS011;5671;47.936;8.716;2022-09-27T05:40:25;1.10;;;0.10;;
11228;SDS011;5671;47.936;8.716;2022-09-27T05:42:53;0.50;;;0.40;;
11228;SDS011;5671;47.936;8.716;2022-09-27T05:45:21;0.10;;;0.10;;
11228;SDS011;5671;47.936;8.716;2022-09-27T05:47:52;0.57;;;0.10;;
11228;SDS011;5671;47.936;8.716;2022-09-27T05:50:20;1.83;;;0.33;;
11228;SDS011;5671;47.936;8.716;2022-09-27T05:52:47;0.20;;;0.10;;
11228;SDS011;5671;47.936;8.716;2022-09-27T05:55:16;3.20;;;0.37;;
11228;SDS011;5671;47.936;8.716;2022-09-27T05:57:52;0.17;;;0.10;;
11228;SDS011;5671;47.936;8.716;2022-09-27T06:00:20;0.10;;;0.10;;
11228;SDS011;5671;47.936;8.716;2022-09-27T06:02:51;1.70;;;0.67;;
11228;SDS011;5671;47.936;8.716;2022-09-27T06:05:20;1.10;;;0.50;;
11228;SDS011;5671;47.936;8.716;2022-09-27T06:07:48;0.30;;;0.20;;
11228;SDS011;5671;47.936;8.716;2022-09-27T06:10:16;0.20;;;0.10;;
11228;SDS011;5671;47.936;8.716;2022-09-27T06:12:45;0.37;;;0.10;;
11228;SDS011;5671;47.936;8.716;2022-09-27T06:15:12;3.23;;;0.30;;
11228;SDS011;5671;47.936;8.716;2022-09-27T06:17:39;0.10;;;0.10;;
11228;SDS011;5671;47.936;8.716;2022-09-27T06:20:07;0.90;;;0.20;;
11228;SDS011;5671;47.936;8.716;2022-09-27T06:22:34;3.23;;;0.27;;
11228;SDS011;5671;47.936;8.716;2022-09-27T06:25:02;0.53;;;0.30;;
11228;SDS011;5671;47.936;8.716;2022-09-27T06:27:31;1.03;;;0.33;;
11228;SDS011;5671;47.936;8.716;2022-09-27T06:29:59;1.97;;;0.30;;
11228;SDS011;5671;47.936;8.716;2022-09-27T06:32:29;2.17;;;0.30;;
11228;SDS011;5671;47.936;8.716;2022-09-27T06:34:57;0.30;;;0.10;;
11228;SDS011;5671;47.936;8.716;2022-09-27T06:37:24;0.73;;;0.30;;
11228;SDS011;5671;47.936;8.716;2022-09-27T06:39:51;0.30;;;0.27;;
11228;SDS011;5671;47.936;8.716;2022-09-27T06:42:19;3.27;;;0.30;;
11228;SDS011;5671;47.936;8.716;2022-09-27T06:44:48;0.73;;;0.20;;
11228;SDS011;5671;47.936;8.716;2022-09-27T06:47:15;1.07;;;0.70;;
11228;SDS011;5671;47.936;8.716;2022-09-27T06:49:42;0.53;;;0.20;;
11228;SDS011;5671;47.936;8.716;2022-09-27T06:52:10;0.37;;;0.37;;
11228;SDS011;5671;47.936;8.716;2022-09-27T06:54:37;2.00;;;0.60;;
11228;SDS011;5671;47.936;8.716;2022-09-27T06:57:04;0.70;;;0.40;;
11228;SDS011;5671;47.936;8.716;2022-09-27T06:59:31;11.27;;;10.03;;
11228;SDS011;5671;47.936;8.716;2022-09-27T07:02:16;5.13;;;4.63;;
11228;SDS011;5671;47.936;8.716;2022-09-27T07:04:44;1.30;;;1.20;;
11228;SDS011;5671;47.936;8.716;2022-09-27T07:07:10;2.80;;;2.10;;
11228;SDS011;5671;47.936;8.716;2022-09-27T07:09:38;4.57;;;3.77;;
11228;SDS011;5671;47.936;8.716;2022-09-27T07:12:05;2.10;;;1.00;;
11228;SDS011;5671;47.936;8.716;2022-09-27T07:14:34;7.20;;;6.23;;
11228;SDS011;5671;47.936;8.716;2022-09-27T07:17:01;7.87;;;6.10;;
11228;SDS011;5671;47.936;8.716;2022-09-27T07:19:30;4.43;;;4.00;;
11228;SDS011;5671;47.936;8.716;2022-09-27T07:21:57;9.80;;;8.60;;
11228;SDS011;5671;47.936;8.716;2022-09-27T07:24:24;8.10;;;6.80;;
11228;SDS011;5671;47.936;8.716;2022-09-27T07:26:51;5.50;;;4.73;;
11228;SDS011;5671;47.936;8.716;2022-09-27T07:29:21;4.83;;;3.80;;
11228;SDS011;5671;47.936;8.716;2022-09-27T07:31:48;2.13;;;1.70;;
11228;SDS011;5671;47.936;8.716;2022-09-27T07:34:16;1.60;;;1.50;;
11228;SDS011;5671;47.936;8.716;2022-09-27T07:36:45;1.83;;;0.73;;
11228;SDS011;5671;47.936;8.716;2022-09-27T07:39:12;2.13;;;1.10;;
11228;SDS011;5671;47.936;8.716;2022-09-27T07:41:40;1.53;;;0.37;;
11228;SDS011;5671;47.936;8.716;2022-09-27T07:44:08;0.77;;;0.70;;
11228;SDS011;5671;47.936;8.716;2022-09-27T07:46:35;0.70;;;0.70;;
11228;SDS011;5671;47.936;8.716;2022-09-27T07:49:02;1.20;;;1.07;;
11228;SDS011;5671;47.936;8.716;2022-09-27T07:51:29;3.03;;;1.93;;
11228;SDS011;5671;47.936;8.716;2022-09-27T07:53:58;2.10;;;0.83;;
11228;SDS011;5671;47.936;8.716;2022-09-27T07:56:25;1.30;;;0.63;;
11228;SDS011;5671;47.936;8.716;2022-09-27T07:58:52;0.30;;;0.30;;
11228;SDS011;5671;47.936;8.716;2022-09-27T08:01:19;0.17;;;0.17;;
11228;SDS011;5671;47.936;8.716;2022-09-27T08:03:46;1.97;;;0.70;;
11228;SDS011;5671;47.936;8.716;2022-09-27T08:06:13;0.77;;;0.47;;
11228;SDS011;5671;47.936;8.716;2022-09-27T08:08:40;0.47;;;0.40;;
11228;SDS011;5671;47.936;8.716;2022-09-27T08:11:12;1.07;;;0.17;;
11228;SDS011;5671;47.936;8.716;2022-09-27T08:13:45;0.40;;;0.33;;
11228;SDS011;5671;47.936;8.716;2022-09-27T08:16:26;0.87;;;0.63;;
11228;SDS011;5671;47.936;8.716;2022-09-27T08:18:55;1.00;;;0.40;;
11228;SDS011;5671;47.936;8.716;2022-09-27T08:21:24;0.50;;;0.30;;
11228;SDS011;5671;47.936;8.716;2022-09-27T08:23:51;0.23;;;0.20;;
11228;SDS011;5671;47.936;8.716;2022-09-27T08:26:27;0.53;;;0.50;;
11228;SDS011;5671;47.936;8.716;2022-09-27T08:28:54;1.00;;;0.50;;
11228;SDS011;5671;47.936;8.716;2022-09-27T08:31:21;0.50;;;0.30;;
11228;SDS011;5671;47.936;8.716;2022-09-27T08:33:49;0.70;;;0.53;;
11228;SDS011;5671;47.936;8.716;2022-09-27T08:36:17;0.60;;;0.50;;
11228;SDS011;5671;47.936;8.716;2022-09-27T08:38:47;0.67;;;0.40;;
11228;SDS011;5671;47.936;8.716;2022-09-27T08:41:16;2.97;;;0.40;;
11228;SDS011;5671;47.936;8.716;2022-09-27T08:43:56;2.07;;;0.70;;
11228;SDS011;5671;47.936;8.716;2022-09-27T08:46:35;1.07;;;0.77;;
11228;SDS011;5671;47.936;8.716;2022-09-27T08:49:09;1.33;;;0.83;;
11228;SDS011;5671;47.936;8.716;2022-09-27T08:51:41;1.67;;;0.70;;
11228;SDS011;5671;47.936;8.716;2022-09-27T08:54:13;1.23;;;1.13;;
11228;SDS011;5671;47.936;8.716;2022-09-27T08:56:45;1.33;;;1.07;;
11228;SDS011;5671;47.936;8.716;2022-09-27T08:59:15;3.17;;;0.80;;
11228;SDS011;5671;47.936;8.716;2022-09-27T09:01:45;2.93;;;2.63;;
11228;SDS011;5671;47.936;8.716;2022-09-27T09:04:14;4.00;;;1.80;;
11228;SDS011;5671;47.936;8.716;2022-09-27T09:06:48;1.53;;;0.50;;
11228;SDS011;5671;47.936;8.716;2022-09-27T09:09:26;14.50;;;11.43;;
11228;SDS011;5671;47.936;8.716;2022-09-27T09:12:06;8.37;;;5.93;;
11228;SDS011;5671;47.936;8.716;2022-09-27T09:15:16;3.60;;;2.93;;
11228;SDS011;5671;47.936;8.716;2022-09-27T09:18:06;3.63;;;1.70;;
11228;SDS011;5671;47.936;8.716;2022-09-27T09:20:50;2.93;;;0.90;;
11228;SDS011;5671;47.936;8.716;2022-09-27T09:23:32;3.80;;;3.40;;
11228;SDS011;5671;47.936;8.716;2022-09-27T09:26:23;2.50;;;1.83;;
11228;SDS011;5671;47.936;8.716;2022-09-27T09:29:03;1.17;;;1.00;;
11228;SDS011;5671;47.936;8.716;2022-09-27T09:31:44;1.20;;;0.70;;
11228;SDS011;5671;47.936;8.716;2022-09-27T09:34:18;1.53;;;0.60;;
11228;SDS011;5671;47.936;8.716;2022-09-27T09:36:49;0.93;;;0.53;;
11228;SDS011;5671;47.936;8.716;2022-09-27T09:39:22;2.43;;;0.73;;
11228;SDS011;5671;47.936;8.716;2022-09-27T09:42:00;1.37;;;1.10;;
11228;SDS011;5671;47.936;8.716;2022-09-27T09:44:38;2.10;;;1.50;;
11228;SDS011;5671;47.936;8.716;2022-09-27T09:47:12;5.60;;;2.80;;
11228;SDS011;5671;47.936;8.716;2022-09-27T09:49:50;1.27;;;0.60;;
11228;SDS011;5671;47.936;8.716;2022-09-27T09:52:40;7.47;;;4.60;;
11228;SDS011;5671;47.936;8.716;2022-09-27T09:55:17;2.07;;;1.87;;
11228;SDS011;5671;47.936;8.716;2022-09-27T09:57:56;6.37;;;3.37;;
11228;SDS011;5671;47.936;8.716;2022-09-27T10:00:29;9.23;;;6.07;;
11228;SDS011;5671;47.936;8.716;2022-09-27T10:02:58;5.27;;;3.30;;
11228;SDS011;5671;47.936;8.716;2022-09-27T10:05:26;11.70;;;7.77;;
11228;SDS011;5671;47.936;8.716;2022-09-27T10:07:56;7.00;;;4.77;;
11228;SDS011;5671;47.936;8.716;2022-09-27T10:10:26;7.93;;;5.10;;
11228;SDS011;5671;47.936;8.716;2022-09-27T10:12:53;5.40;;;3.93;;
11228;SDS011;5671;47.936;8.716;2022-09-27T10:15:22;9.00;;;6.50;;
11228;SDS011;5671;47.936;8.716;2022-09-27T10:17:51;9.10;;;5.70;;
11228;SDS011;5671;47.936;8.716;2022-09-27T10:20:31;9.83;;;7.40;;
11228;SDS011;5671;47.936;8.716;2022-09-27T10:23:03;4.70;;;2.93;;
11228;SDS011;5671;47.936;8.716;2022-09-27T10:25:44;4.20;;;3.43;;
11228;SDS011;5671;47.936;8.716;2022-09-27T10:28:26;4.47;;;2.43;;
11228;SDS011;5671;47.936;8.716;2022-09-27T10:30:57;5.27;;;3.97;;
11228;SDS011;5671;47.936;8.716;2022-09-27T10:33:26;1.70;;;1.60;;
11228;SDS011;5671;47.936;8.716;2022-09-27T10:35:57;1.43;;;1.10;;
11228;SDS011;5671;47.936;8.716;2022-09-27T10:38:26;2.13;;;1.60;;
11228;SDS011;5671;47.936;8.716;2022-09-27T10:40:55;3.50;;;2.60;;
11228;SDS011;5671;47.936;8.716;2022-09-27T10:43:25;3.60;;;2.53;;
11228;SDS011;5671;47.936;8.716;2022-09-27T10:46:01;2.40;;;1.90;;
11228;SDS011;5671;47.936;8.716;2022-09-27T10:48:31;1.27;;;0.50;;
11228;SDS011;5671;47.936;8.716;2022-09-27T10:51:00;1.10;;;0.50;;
11228;SDS011;5671;47.936;8.716;2022-09-27T10:53:29;2.17;;;1.43;;
11228;SDS011;5671;47.936;8.716;2022-09-27T10:55:57;2.23;;;1.60;;
11228;SDS011;5671;47.936;8.716;2022-09-27T10:58:25;1.00;;;0.70;;
11228;SDS011;5671;47.936;8.716;2022-09-27T11:00:54;1.83;;;0.73;;
11228;SDS011;5671;47.936;8.716;2022-09-27T11:03:25;1.00;;;0.90;;
11228;SDS011;5671;47.936;8.716;2022-09-27T11:05:53;1.77;;;0.60;;
11228;SDS011;5671;47.936;8.716;2022-09-27T11:08:23;1.17;;;0.60;;
11228;SDS011;5671;47.936;8.716;2022-09-27T11:11:02;1.53;;;0.50;;
11228;SDS011;5671;47.936;8.716;2022-09-27T11:13:31;0.53;;;0.50;;
11228;SDS011;5671;47.936;8.716;2022-09-27T11:16:14;4.77;;;3.30;;
11228;SDS011;5671;47.936;8.716;2022-09-27T11:18:54;1.63;;;1.17;;
11228;SDS011;5671;47.936;8.716;2022-09-27T11:21:30;2.90;;;2.30;;
11228;SDS011;5671;47.936;8.716;2022-09-27T11:24:13;1.63;;;1.17;;
11228;SDS011;5671;47.936;8.716;2022-09-27T11:27:01;1.50;;;0.90;;
11228;SDS011;5671;47.936;8.716;2022-09-27T11:29:43;2.60;;;1.57;;
11228;SDS011;5671;47.936;8.716;2022-09-27T11:32:26;2.13;;;1.00;;
11228;SDS011;5671;47.936;8.716;2022-09-27T11:35:19;2.67;;;0.60;;
11228;SDS011;5671;47.936;8.716;2022-09-27T11:38:00;1.30;;;0.93;;
11228;SDS011;5671;47.936;8.716;2022-09-27T11:40:53;1.17;;;0.97;;
11228;SDS011;5671;47.936;8.716;2022-09-27T11:46:44;1.37;;;1.23;;
11228;SDS011;5671;47.936;8.716;2022-09-27T11:49:24;1.37;;;0.90;;
11228;SDS011;5671;47.936;8.716;2022-09-27T11:52:10;1.93;;;0.90;;
11228;SDS011;5671;47.936;8.716;2022-09-27T11:54:56;0.93;;;0.77;;
11228;SDS011;5671;47.936;8.716;2022-09-27T11:57:40;2.33;;;1.00;;
11228;SDS011;5671;47.936;8.716;2022-09-27T12:00:11;1.53;;;0.50;;
11228;SDS011;5671;47.936;8.716;2022-09-27T12:05:55;0.50;;;0.50;;
11228;SDS011;5671;47.936;8.716;2022-09-27T12:08:47;2.77;;;0.50;;
11228;SDS011;5671;47.936;8.716;2022-09-27T12:11:22;6.40;;;0.60;;
11228;SDS011;5671;47.936;8.716;2022-09-27T12:13:56;1.47;;;0.80;;
11228;SDS011;5671;47.936;8.716;2022-09-27T12:16:25;2.57;;;1.00;;
11228;SDS011;5671;47.936;8.716;2022-09-27T12:18:53;1.47;;;1.00;;
11228;SDS011;5671;47.936;8.716;2022-09-27T12:21:21;1.47;;;0.80;;
11228;SDS011;5671;47.936;8.716;2022-09-27T12:23:49;1.43;;;0.50;;
11228;SDS011;5671;47.936;8.716;2022-09-27T12:26:19;2.33;;;0.40;;
11228;SDS011;5671;47.936;8.716;2022-09-27T12:28:51;1.87;;;0.67;;
11228;SDS011;5671;47.936;8.716;2022-09-27T12:31:28;4.87;;;3.67;;
11228;SDS011;5671;47.936;8.716;2022-09-27T12:34:01;1.03;;;0.53;;
11228;SDS011;5671;47.936;8.716;2022-09-27T12:36:38;1.70;;;0.40;;
11228;SDS011;5671;47.936;8.716;2022-09-27T12:39:14;1.40;;;0.60;;
11228;SDS011;5671;47.936;8.716;2022-09-27T12:41:50;1.13;;;0.67;;
11228;SDS011;5671;47.936;8.716;2022-09-27T12:44:27;1.63;;;0.80;;
11228;SDS011;5671;47.936;8.716;2022-09-27T12:47:10;1.60;;;1.50;;
11228;SDS011;5671;47.936;8.716;2022-09-27T12:49:47;0.57;;;0.57;;
11228;SDS011;5671;47.936;8.716;2022-09-27T12:52:23;3.87;;;0.83;;
11228;SDS011;5671;47.936;8.716;2022-09-27T12:55:24;2.20;;;1.00;;
11228;SDS011;5671;47.936;8.716;2022-09-27T12:58:15;3.53;;;1.50;;
11228;SDS011;5671;47.936;8.716;2022-09-27T13:01:03;1.40;;;1.23;;
11228;SDS011;5671;47.936;8.716;2022-09-27T13:03:59;4.07;;;2.20;;
11228;SDS011;5671;47.936;8.716;2022-09-27T13:06:55;2.03;;;0.93;;
11228;SDS011;5671;47.936;8.716;2022-09-27T13:12:51;1.43;;;1.10;;
11228;SDS011;5671;47.936;8.716;2022-09-27T13:15:37;3.07;;;1.07;;
11228;SDS011;5671;47.936;8.716;2022-09-27T13:18:30;2.93;;;1.20;;
11228;SDS011;5671;47.936;8.716;2022-09-27T13:27:37;3.17;;;1.10;;
11228;SDS011;5671;47.936;8.716;2022-09-27T13:33:20;1.13;;;0.60;;
11228;SDS011;5671;47.936;8.716;2022-09-27T13:36:06;0.50;;;0.50;;
11228;SDS011;5671;47.936;8.716;2022-09-27T13:38:49;1.47;;;0.50;;
11228;SDS011;5671;47.936;8.716;2022-09-27T13:41:20;0.60;;;0.60;;
11228;SDS011;5671;47.936;8.716;2022-09-27T13:43:50;1.53;;;0.80;;
11228;SDS011;5671;47.936;8.716;2022-09-27T13:46:29;2.70;;;0.60;;
11228;SDS011;5671;47.936;8.716;2022-09-27T13:48:59;2.53;;;0.90;;
11228;SDS011;5671;47.936;8.716;2022-09-27T13:51:33;2.20;;;0.57;;
11228;SDS011;5671;47.936;8.716;2022-09-27T13:54:08;1.63;;;0.60;;
11228;SDS011;5671;47.936;8.716;2022-09-27T13:57:15;1.40;;;0.43;;
11228;SDS011;5671;47.936;8.716;2022-09-27T14:00:08;1.50;;;1.30;;
11228;SDS011;5671;47.936;8.716;2022-09-27T14:02:38;2.73;;;0.60;;
11228;SDS011;5671;47.936;8.716;2022-09-27T14:05:16;0.60;;;0.40;;
11228;SDS011;5671;47.936;8.716;2022-09-27T14:07:48;0.63;;;0.30;;
11228;SDS011;5671;47.936;8.716;2022-09-27T14:10:18;0.87;;;0.50;;
11228;SDS011;5671;47.936;8.716;2022-09-27T14:12:47;0.83;;;0.60;;
11228;SDS011;5671;47.936;8.716;2022-09-27T14:15:20;2.23;;;0.60;;
11228;SDS011;5671;47.936;8.716;2022-09-27T14:17:49;1.47;;;1.07;;
11228;SDS011;5671;47.936;8.716;2022-09-27T14:20:34;3.03;;;0.83;;
11228;SDS011;5671;47.936;8.716;2022-09-27T14:23:03;1.00;;;1.00;;
11228;SDS011;5671;47.936;8.716;2022-09-27T14:25:30;3.00;;;1.60;;
11228;SDS011;5671;47.936;8.716;2022-09-27T14:27:57;1.50;;;1.20;;
11228;SDS011;5671;47.936;8.716;2022-09-27T14:30:27;1.43;;;1.27;;
11228;SDS011;5671;47.936;8.716;2022-09-27T14:32:55;2.33;;;1.03;;
11228;SDS011;5671;47.936;8.716;2022-09-27T14:35:31;3.23;;;0.60;;
11228;SDS011;5671;47.936;8.716;2022-09-27T14:38:18;3.07;;;1.60;;
11228;SDS011;5671;47.936;8.716;2022-09-27T14:40:53;1.13;;;0.87;;
11228;SDS011;5671;47.936;8.716;2022-09-27T14:43:23;3.33;;;1.40;;
11228;SDS011;5671;47.936;8.716;2022-09-27T14:45:56;1.30;;;1.20;;
11228;SDS011;5671;47.936;8.716;2022-09-27T14:48:26;3.40;;;1.57;;
11228;SDS011;5671;47.936;8.716;2022-09-27T14:50:55;4.40;;;0.70;;
11228;SDS011;5671;47.936;8.716;2022-09-27T14:53:25;1.50;;;0.60;;
11228;SDS011;5671;47.936;8.716;2022-09-27T14:55:54;2.23;;;0.97;;
11228;SDS011;5671;47.936;8.716;2022-09-27T14:58:22;1.57;;;0.90;;
11228;SDS011;5671;47.936;8.716;2022-09-27T15:00:50;0.40;;;0.40;;
11228;SDS011;5671;47.936;8.716;2022-09-27T15:03:21;0.80;;;0.80;;
11228;SDS011;5671;47.936;8.716;2022-09-27T15:05:50;0.40;;;0.40;;
11228;SDS011;5671;47.936;8.716;2022-09-27T15:08:19;1.10;;;0.83;;
11228;SDS011;5671;47.936;8.716;2022-09-27T15:10:51;1.33;;;0.50;;
11228;SDS011;5671;47.936;8.716;2022-09-27T15:13:18;2.83;;;0.97;;
11228;SDS011;5671;47.936;8.716;2022-09-27T15:15:46;1.40;;;0.77;;
11228;SDS011;5671;47.936;8.716;2022-09-27T15:21:08;0.60;;;0.60;;
11228;SDS011;5671;47.936;8.716;2022-09-27T15:23:37;1.60;;;0.47;;
11228;SDS011;5671;47.936;8.716;2022-09-27T15:26:07;2.07;;;0.50;;
11228;SDS011;5671;47.936;8.716;2022-09-27T15:28:41;0.57;;;0.47;;
11228;SDS011;5671;47.936;8.716;2022-09-27T15:31:09;2.23;;;0.87;;
11228;SDS011;5671;47.936;8.716;2022-09-27T15:33:37;2.77;;;1.67;;
11228;SDS011;5671;47.936;8.716;2022-09-27T15:36:07;8.13;;;6.10;;
11228;SDS011;5671;47.936;8.716;2022-09-27T15:38:36;4.70;;;3.83;;
11228;SDS011;5671;47.936;8.716;2022-09-27T15:41:11;2.23;;;1.93;;
11228;SDS011;5671;47.936;8.716;2022-09-27T15:43:54;3.03;;;2.00;;
11228;SDS011;5671;47.936;8.716;2022-09-27T15:46:25;3.73;;;1.93;;
11228;SDS011;5671;47.936;8.716;2022-09-27T15:49:20;1.53;;;0.97;;
11228;SDS011;5671;47.936;8.716;2022-09-27T15:51:59;5.73;;;1.13;;
11228;SDS011;5671;47.936;8.716;2022-09-27T15:54:29;2.20;;;0.87;;
11228;SDS011;5671;47.936;8.716;2022-09-27T15:57:00;1.53;;;1.00;;
11228;SDS011;5671;47.936;8.716;2022-09-27T15:59:30;0.50;;;0.50;;